Airport Name : Pakse

Other Name : Pakse

ICAO : VLPS

IATA : PKZ

FAA :

Latitude : 15.132053

Longitude : 105.781417

Country : Laos

Local Date and Time : 25 Jun 2024 12:59

 

TAF (Terminal Aerodrome Forecast)

TAF VLPS 250500Z 2506/2606 18006KT 9999 SCT017 BKN050

 

METAR (METeorological Aerodrome Report)

VLPS 250500Z 14004KT 9999 SCT020 SCT050 29/25 Q1006 NOSIG

VLPS 250400Z 14004KT 9999 SCT020 SCT050 29/25 Q1006 NOSIG

VLPS 250300Z 14002KT 9999 BKN017 SCT050 28/25 Q1007 NOSIG

VLPS 250200Z 14010KT 9999 BKN017 SCT050 27/25 Q1007 NOSIG